ESDF

Ronneby Airport

Sweden
METAR ESDF 162350Z AUTO 34002KT 9999 SCT068/// M03/M03 Q1007
Observed Flight Rules
Dec-16 @ 23:50 UTC (43 minutes ago) Visual Flight Rules
Wind Visibility Clouds
340° at 2 knots 10,000+ meters
  • Scattered at 6,800' AGL
Temperatures Readings
Current -3°C / 27°F
Dewpoint -3°C / 27°F
Humidity 100%
Altimeter 29.73" Hg
Pressure 1007 hPa
Elevation 74
METAR ESDF 162350Z AUTO 34002KT 9999 SCT068/// M03/M03 Q1007
Observed Flight Rules
Dec-16 @ 23:50 UTC
(43 minutes ago)
VFR
Wind Visibility
340° at 2 knots 10,000+ meters
Clouds
  • Scattered at 6,800' AGL
Temperature Dewpoint
-3°C / 27°F -3°C / 27°F
Humidity Altimeter Pressure
100% 29.73" Hg 1007 hPa